Torrent, Spain
Current Conditions -  °F | °C
As of 10:00 AM on Saturday 22 Nov 2014 (Local Time) from LEVC Reporting Station
Broken Clouds Broken Clouds  
Wind Chill: 16°   Ceiling: 1700
Heat Index: 16°   Visibility: 6mi
Dew Point: 12°   Wind: 3mph
Humidity: 77%   Direction: 340°NNW
Pressure: 30.06"   Gusts: NA
Location:  39.44°N, 0.47°W
Report Text: LEVC 220900Z 34003KT 300V020 9999 FEW013 BKN017 BKN060 16/12 Q1018 NOSIG
Loading
Personal Weather Stations






























Interactive Weather Map New forecast layout! Learn more

10-Day Weather Forecast

Advertisements
Track Severe Weather on mobile